Time;durP1;ratioP1;P1;durP2;ratioP2;P2;SDS_P1;SDS_P2;PMS_P1;PMS_P2;Temp;Humidity;BMP_temperature;BMP_pressure;BME280_temperature;BME280_humidity;BME280_pressure;Samples;Min_cycle;Max_cycle;Signal;HPM_P1;HPM_P2
2022/12/17 13:06:43;;;;;;;6.93;6.00;;;;;;;17.75;36.80;102568.72;5044604;28;20044;-61
2022/12/17 13:09:14;;;;;;;6.85;5.97;;;;;;;17.73;36.69;102568.81;5045193;28;20360;-61
2022/12/17 13:11:41;;;;;;;8.63;6.53;;;;;;;17.72;36.83;102567.13;5044836;28;20030;-61
2022/12/17 13:14:14;;;;;;;7.35;5.72;;;;;;;17.74;36.78;102556.25;5043398;28;20018;-61
2022/12/17 13:16:45;;;;;;;6.45;5.55;;;;;;;17.73;36.81;102565.28;5044565;28;20021;-61
2022/12/17 13:19:30;;;;;;;8.40;6.22;;;;;;;17.65;36.86;102555.13;5044872;28;20390;-61
2022/12/17 13:22:08;;;;;;;6.50;5.20;;;;;;;17.72;36.88;102561.72;5045046;28;20034;-61
2022/12/17 13:24:34;;;;;;;7.78;6.03;;;;;;;17.71;36.68;102549.28;5044606;28;20280;-61
2022/12/17 13:26:59;;;;;;;7.25;6.20;;;;;;;17.71;36.94;102559.16;5044596;28;20024;-61
2022/12/17 13:29:31;;;;;;;7.47;6.68;;;;;;;17.69;36.81;102551.19;5044830;28;20036;-61
2022/12/17 13:31:59;;;;;;;6.95;5.80;;;;;;;17.69;36.98;102550.34;5045084;28;20029;-60
2022/12/17 13:34:32;;;;;;;7.30;6.32;;;;;;;17.69;37.02;102556.59;5044306;28;20021;-61
2022/12/17 13:37:23;;;;;;;7.80;5.55;;;;;;;17.64;36.83;102548.03;5044919;28;20037;-61
2022/12/17 13:40:03;;;;;;;7.50;5.70;;;;;;;17.70;36.80;102549.38;5044699;28;20051;-61
2022/12/17 13:42:31;;;;;;;7.05;5.50;;;;;;;17.69;36.69;102543.13;5043840;28;20033;-61
2022/12/17 13:44:57;;;;;;;7.75;5.90;;;;;;;17.58;36.89;102526.13;5026250;28;20022;-60
2022/12/17 13:47:33;;;;;;;8.43;6.35;;;;;;;17.65;36.97;102540.81;5042856;28;20144;-60
2022/12/17 13:50:01;;;;;;;8.40;6.22;;;;;;;17.65;36.91;102538.13;5044331;28;20546;-60
2022/12/17 13:52:28;;;;;;;8.27;6.28;;;;;;;17.64;37.00;102541.78;5044302;28;20026;-61
2022/12/17 13:55:05;;;;;;;7.60;6.10;;;;;;;17.64;36.93;102547.19;5044238;28;20029;-61
2022/12/17 13:57:31;;;;;;;8.50;6.05;;;;;;;17.64;36.81;102544.47;5044102;28;20415;-61
2022/12/17 13:59:58;;;;;;;6.82;6.10;;;;;;;17.65;36.77;102532.75;5042985;28;20040;-61
2022/12/17 14:02:33;;;;;;;7.50;5.78;;;;;;;17.64;36.76;102534.56;5044014;28;20021;-61
2022/12/17 14:05:00;;;;;;;6.95;5.93;;;;;;;17.65;36.71;102535.44;5043836;28;20026;-60
2022/12/17 14:07:26;;;;;;;7.75;6.05;;;;;;;17.65;36.66;102535.44;5044109;28;20090;-60
2022/12/17 14:09:52;;;;;;;6.25;5.53;;;;;;;17.65;36.79;102538.97;5044091;28;20028;-61
2022/12/17 14:12:22;;;;;;;6.35;5.38;;;;;;;17.64;36.77;102541.78;5042271;28;20026;-61
2022/12/17 14:14:54;;;;;;;7.63;6.07;;;;;;;17.65;36.78;102551.56;5036326;28;20026;-61
2022/12/17 14:17:25;;;;;;;7.63;6.05;;;;;;;17.54;36.67;102535.41;5043464;28;20056;-61
2022/12/17 14:19:56;;;;;;;7.70;6.22;;;;;;;17.63;36.71;102556.22;5059317;28;20040;-61
2022/12/17 14:22:28;;;;;;;6.75;5.55;;;;;;;17.62;36.75;102562.56;5043755;28;20099;-61
2022/12/17 14:24:54;;;;;;;8.13;6.45;;;;;;;17.61;36.62;102558.16;5043714;28;20025;-61
2022/12/17 14:27:25;;;;;;;8.25;6.28;;;;;;;17.57;36.67;102554.84;5058890;28;20066;-61
2022/12/17 14:29:51;;;;;;;7.93;6.00;;;;;;;17.48;36.87;102540.28;5044304;28;20057;-61
2022/12/17 14:32:25;;;;;;;7.53;6.50;;;;;;;17.60;36.75;102569.91;5044107;28;20529;-61
2022/12/17 14:34:50;;;;;;;7.30;5.75;;;;;;;17.56;36.81;102561.22;5042361;28;20033;-61
2022/12/17 14:37:22;;;;;;;7.78;6.65;;;;;;;17.56;36.64;102569.28;5059234;28;20425;-60
2022/12/17 14:39:48;;;;;;;7.03;6.22;;;;;;;17.55;36.88;102575.66;5043765;28;20095;-60
2022/12/17 14:42:27;;;;;;;8.68;5.90;;;;;;;17.54;36.79;102571.22;5058505;28;20508;-61
2022/12/17 14:44:54;;;;;;;7.55;6.30;;;;;;;17.55;36.84;102574.78;5059040;28;20033;-60
2022/12/17 14:47:21;;;;;;;6.75;6.05;;;;;;;17.55;36.85;102569.41;5046049;28;20560;-61
2022/12/17 14:49:57;;;;;;;6.68;5.78;;;;;;;17.54;36.72;102573.91;5046898;28;20485;-61
2022/12/17 14:52:34;;;;;;;7.53;5.93;;;;;;;17.50;37.06;102569.78;5027915;28;20044;-61
2022/12/17 14:55:00;;;;;;;7.72;6.38;;;;;;;17.54;36.78;102586.50;5027395;28;20022;-61
2022/12/17 14:57:26;;;;;;;7.20;6.03;;;;;;;17.47;36.87;102578.94;5027314;28;20022;-61
2022/12/17 14:59:51;;;;;;;7.97;6.50;;;;;;;17.44;36.87;102573.78;5027734;28;20018;-61
2022/12/17 15:02:25;;;;;;;6.38;5.70;;;;;;;17.52;36.91;102593.84;5027652;28;20032;-60
2022/12/17 15:05:00;;;;;;;7.45;6.07;;;;;;;17.49;36.99;102587.72;5026271;28;20030;-60
2022/12/17 15:07:28;;;;;;;6.43;5.65;;;;;;;17.49;36.77;102579.66;5042696;28;20033;-60
2022/12/17 15:09:54;;;;;;;7.85;5.95;;;;;;;17.49;36.70;102582.34;5027742;28;20026;-60
2022/12/17 15:12:21;;;;;;;6.70;6.00;;;;;;;17.46;37.01;102579.91;5037406;28;20931;-60
2022/12/17 15:14:46;;;;;;;7.20;5.90;;;;;;;17.47;36.81;102595.06;5042361;28;20014;-60
2022/12/17 15:17:11;;;;;;;7.10;5.97;;;;;;;17.45;36.98;102586.22;5026868;28;20382;-60
2022/12/17 15:19:37;;;;;;;8.68;6.93;;;;;;;17.44;36.95;102599.81;5027564;28;20026;-60
2022/12/17 15:22:03;;;;;;;7.03;6.32;;;;;;;17.42;37.04;102601.78;5027749;28;20038;-60
2022/12/17 15:24:28;;;;;;;7.50;6.18;;;;;;;17.42;36.94;102593.72;5027120;28;20022;-60
2022/12/17 15:26:53;;;;;;;8.18;5.85;;;;;;;17.42;36.95;102597.25;5027449;28;20029;-60
2022/12/17 15:29:19;;;;;;;6.65;5.63;;;;;;;17.39;36.95;102600.16;5027028;28;20398;-61
2022/12/17 15:31:44;;;;;;;7.78;6.53;;;;;;;17.40;36.96;102609.09;5042612;28;20431;-61
2022/12/17 15:34:10;;;;;;;7.43;6.05;;;;;;;17.42;36.76;102608.00;5027187;28;20058;-61
2022/12/17 15:36:35;;;;;;;15.95;6.78;;;;;;;17.42;37.10;102605.31;5036913;28;20030;-61
2022/12/17 15:39:00;;;;;;;9.25;6.47;;;;;;;17.42;36.88;102609.84;5040839;28;20109;-61
2022/12/17 15:44:10;;;;;;;7.43;5.90;;;;;;;17.38;37.21;102603.84;5045707;28;20406;-62
2022/12/17 15:46:35;;;;;;;7.25;6.13;;;;;;;17.44;37.13;102608.72;5057153;28;20036;-61
2022/12/17 15:49:01;;;;;;;8.98;6.57;;;;;;;17.43;37.26;102615.09;5065835;28;20073;-62
2022/12/17 15:51:26;;;;;;;7.55;6.30;;;;;;;17.41;37.26;102617.03;5046339;28;20470;-62
2022/12/17 15:53:51;;;;;;;7.22;5.95;;;;;;;17.44;37.13;102629.38;5051284;28;20029;-62
2022/12/17 15:56:21;;;;;;;7.85;5.80;;;;;;;17.33;37.19;102611.41;5065497;28;20034;-62
2022/12/17 15:58:46;;;;;;;;;;;;;;;17.42;37.20;102629.50;5065836;28;20025;-63
2022/12/17 16:01:11;;;;;;;6.80;5.68;;;;;;;17.40;37.55;102620.69;5065729;28;19915;-62
2022/12/17 16:03:36;;;;;;;7.00;6.05;;;;;;;17.41;37.39;102626.94;5045442;28;20428;-62
2022/12/17 16:06:02;;;;;;;8.07;6.20;;;;;;;17.41;37.39;102627.78;5052791;28;20028;-62
2022/12/17 16:08:27;;;;;;;7.13;6.13;;;;;;;17.41;37.42;102625.09;5066182;28;20033;-63
2022/12/17 16:10:52;;;;;;;6.70;5.95;;;;;;;17.42;37.47;102625.97;5064606;28;20021;-63
2022/12/17 16:13:18;;;;;;;7.18;6.00;;;;;;;17.41;37.53;102630.47;5045699;28;20522;-62
2022/12/17 16:15:43;;;;;;;7.32;6.28;;;;;;;17.42;37.40;102634.03;5046427;28;20061;-63
2022/12/17 16:18:09;;;;;;;7.35;5.97;;;;;;;17.42;37.61;102642.09;5053587;28;20037;-65
2022/12/17 16:20:35;;;;;;;8.23;6.47;;;;;;;17.39;37.70;102637.81;5065691;28;20081;-63
2022/12/17 16:23:00;;;;;;;7.47;5.50;;;;;;;17.42;37.34;102639.41;5065158;28;20487;-63
2022/12/17 16:25:25;;;;;;;7.10;5.75;;;;;;;17.41;37.49;102645.75;5048608;28;20124;-64
2022/12/17 16:27:51;;;;;;;6.88;5.55;;;;;;;17.41;37.62;102641.22;5059540;28;20033;-63
2022/12/17 16:30:16;;;;;;;6.78;5.45;;;;;;;17.41;37.67;102646.59;5054602;28;20021;-63
2022/12/17 16:32:41;;;;;;;7.63;6.25;;;;;;;17.37;37.50;102636.19;5065076;28;20056;-63
2022/12/17 16:35:07;;;;;;;9.25;5.97;;;;;;;17.37;37.87;102631.66;5064902;28;20025;-62
2022/12/17 16:37:32;;;;;;;6.75;6.00;;;;;;;17.42;37.76;102639.41;5048386;28;20386;-63
2022/12/17 16:39:57;;;;;;;7.15;5.93;;;;;;;17.39;37.73;102629.75;5054996;28;20108;-63
2022/12/17 16:42:23;;;;;;;7.13;5.53;;;;;;;17.43;37.67;102641.13;5057544;28;20029;-62
2022/12/17 16:44:48;;;;;;;6.55;5.00;;;;;;;17.42;37.67;102634.91;5064694;28;20044;-63
2022/12/17 16:47:13;;;;;;;6.72;4.90;;;;;;;17.43;37.68;102639.28;5064182;28;20051;-62
2022/12/17 16:49:41;;;;;;;7.35;5.80;;;;;;;17.45;37.60;102649.91;5061272;28;20080;-63
2022/12/17 16:52:07;;;;;;;7.67;6.17;;;;;;;17.46;37.69;102648.97;5052812;28;20059;-63
2022/12/17 16:54:32;;;;;;;8.55;5.55;;;;;;;17.47;37.95;102642.59;5055322;28;20030;-63
2022/12/17 16:56:57;;;;;;;6.72;5.53;;;;;;;17.47;37.98;102648.84;5045305;28;20052;-62
2022/12/17 16:59:23;;;;;;;8.07;5.88;;;;;;;17.42;38.17;102639.41;5044362;28;20036;-63
2022/12/17 17:01:49;;;;;;;7.50;6.10;;;;;;;17.49;38.30;102654.94;5044882;28;20029;-63
2022/12/17 17:04:17;;;;;;;7.45;6.38;;;;;;;17.52;38.29;102661.09;5048736;28;20086;-62
2022/12/17 17:06:45;;;;;;;7.43;6.05;;;;;;;17.52;38.17;102661.09;5051521;28;20029;-63
2022/12/17 17:09:11;;;;;;;27.90;15.82;;;;;;;17.52;38.46;102666.47;5051551;28;20089;-62
2022/12/17 17:11:37;;;;;;;18.67;11.93;;;;;;;17.52;38.52;102670.00;5056413;28;20036;-63
2022/12/17 17:14:03;;;;;;;16.88;11.02;;;;;;;17.53;38.81;102673.53;5039224;28;20017;-62
2022/12/17 17:16:29;;;;;;;17.35;11.35;;;;;;;17.54;38.65;102673.41;5032006;28;20418;-63
2022/12/17 17:18:54;;;;;;;17.63;10.90;;;;;;;17.48;38.81;102660.44;5064408;28;20055;-62
2022/12/17 17:21:29;;;;;;;18.48;13.15;;;;;;;17.56;38.69;102674.16;5059885;28;20025;-62
2022/12/17 17:23:57;;;;;;;16.90;12.10;;;;;;;17.58;38.92;102668.66;5064322;28;20040;-63
2022/12/17 17:26:23;;;;;;;15.15;11.82;;;;;;;17.59;38.89;102663.19;5064742;28;20021;-63
2022/12/17 17:28:48;;;;;;;13.07;10.65;;;;;;;17.57;39.01;102658.88;5059116;28;20033;-62
2022/12/17 17:31:14;;;;;;;16.33;11.57;;;;;;;17.61;39.03;102668.44;5059446;28;20013;-62
2022/12/17 17:33:42;;;;;;;15.90;11.80;;;;;;;17.58;39.11;102671.34;5064029;28;20025;-62
2022/12/17 17:36:09;;;;;;;15.23;11.35;;;;;;;17.62;38.99;102678.22;5064258;28;20025;-63
2022/12/17 17:38:36;;;;;;;14.18;10.65;;;;;;;17.54;38.96;102665.34;5064211;28;20055;-62
2022/12/17 17:41:02;;;;;;;14.13;10.98;;;;;;;17.61;38.88;102669.28;5078042;28;20036;-63
2022/12/17 17:43:28;;;;;;;16.33;11.55;;;;;;;17.62;39.02;102659.38;5061048;28;20037;-62
2022/12/17 17:45:54;;;;;;;13.95;10.57;;;;;;;17.62;38.72;102662.94;5063696;28;20041;-62
2022/12/17 17:48:19;;;;;;;16.83;10.43;;;;;;;17.62;38.66;102667.47;5063914;28;20065;-62
2022/12/17 17:50:59;;;;;;;11.98;9.65;;;;;;;17.63;38.68;102661.13;5057471;28;20026;-62
2022/12/17 17:53:25;;;;;;;14.25;10.75;;;;;;;17.62;38.50;102662.94;5052265;28;20100;-63
2022/12/17 17:55:50;;;;;;;15.32;10.90;;;;;;;17.61;38.42;102660.38;5064395;28;20025;-62
2022/12/17 17:58:15;;;;;;;15.23;11.02;;;;;;;17.60;38.77;102659.53;5074659;28;20160;-63
2022/12/17 18:00:40;;;;;;;16.50;11.35;;;;;;;17.60;38.48;102666.72;5052668;28;20033;-63
2022/12/17 18:03:06;;;;;;;13.70;11.32;;;;;;;17.59;38.30;102660.50;5043864;28;20021;-63
2022/12/17 18:05:36;;;;;;;14.57;11.55;;;;;;;17.59;38.29;102667.72;5044273;28;20083;-62
2022/12/17 18:08:01;;;;;;;14.30;9.77;;;;;;;17.58;38.29;102668.66;5059572;28;20093;-62
2022/12/17 18:10:27;;;;;;;11.32;9.60;;;;;;;17.58;38.36;102680.28;5055692;28;20028;-62
2022/12/17 18:15:37;;;;;;;13.93;10.95;;;;;;;17.58;38.20;102685.66;5043320;28;20113;-62
2022/12/17 18:18:02;;;;;;;12.13;9.75;;;;;;;17.55;38.22;102688.59;5043484;28;20029;-63
2022/12/17 18:20:27;;;;;;;15.68;10.23;;;;;;;17.57;38.16;102685.78;5043515;28;20026;-62
2022/12/17 18:22:53;;;;;;;13.98;10.45;;;;;;;17.55;38.08;102691.28;5040476;28;20028;-62
2022/12/17 18:25:18;;;;;;;13.63;10.13;;;;;;;17.56;38.10;102702.91;5042603;28;20110;-63
2022/12/17 18:27:43;;;;;;;12.85;9.55;;;;;;;17.54;38.06;102694.94;5044192;28;20032;-63
2022/12/17 18:30:09;;;;;;;13.18;9.95;;;;;;;17.56;37.87;102697.53;5043584;28;20030;-62
2022/12/17 18:32:34;;;;;;;14.10;10.20;;;;;;;17.55;37.72;102695.81;5043746;28;20038;-63
2022/12/17 18:34:59;;;;;;;11.95;9.93;;;;;;;17.51;37.74;102695.19;5042300;28;20030;-62
2022/12/17 18:37:25;;;;;;;13.73;9.52;;;;;;;17.53;37.74;102703.97;5043164;28;20037;-63
2022/12/17 18:39:50;;;;;;;14.50;9.88;;;;;;;17.53;37.71;102705.81;5041048;28;20025;-63
2022/12/17 18:45:00;;;;;;;10.60;9.23;;;;;;;17.55;37.83;102701.19;5042879;28;20044;-63
2022/12/17 18:47:26;;;;;;;13.23;10.07;;;;;;;17.54;37.86;102702.16;5041624;28;20049;-63
2022/12/17 18:49:52;;;;;;;12.38;9.63;;;;;;;17.53;37.82;102697.75;5041360;28;20029;-63
2022/12/17 18:52:17;;;;;;;95.45;45.50;;;;;;;17.55;37.98;102698.50;5043612;28;20044;-63
2022/12/17 18:54:42;;;;;;;96.00;44.88;;;;;;;17.41;37.62;102678.88;5042466;28;20505;-62
2022/12/17 18:57:08;;;;;;;67.35;32.47;;;;;;;17.53;37.66;102697.75;5044074;28;20039;-63
2022/12/17 18:59:33;;;;;;;54.00;25.73;;;;;;;17.53;37.18;102700.44;5059679;28;20052;-63
2022/12/17 19:01:58;;;;;;;53.10;26.88;;;;;;;17.52;37.41;102696.03;5043390;28;20037;-62
2022/12/17 19:04:25;;;;;;;44.15;23.02;;;;;;;17.51;37.45;102697.03;5042570;28;20036;-62
2022/12/17 19:06:52;;;;;;;44.17;23.38;;;;;;;17.47;37.32;102701.78;5043973;28;20068;-63
2022/12/17 19:09:19;;;;;;;50.22;23.05;;;;;;;17.48;37.32;102709.72;5043362;28;20022;-63
2022/12/17 19:11:44;;;;;;;42.00;22.50;;;;;;;17.47;37.19;102710.69;5043464;28;20040;-63
2022/12/17 19:14:09;;;;;;;34.63;20.25;;;;;;;17.43;37.20;102700.28;5042624;28;20091;-63
2022/12/17 19:16:34;;;;;;;37.65;19.50;;;;;;;17.45;37.12;102709.06;5042711;28;20068;-63
2022/12/17 19:19:02;;;;;;;42.40;18.95;;;;;;;17.38;37.21;102703.31;5043328;28;20021;-63
2022/12/17 19:21:28;;;;;;;38.28;20.80;;;;;;;17.44;37.22;102718.13;5043447;28;20033;-62
2022/12/17 19:23:58;;;;;;;37.15;18.52;;;;;;;17.42;37.22;102723.63;5042769;28;20031;-63
2022/12/17 19:26:24;;;;;;;33.72;16.80;;;;;;;17.41;37.17;102713.81;5045158;28;20037;-62
2022/12/17 19:28:52;;;;;;;37.70;18.27;;;;;;;17.41;36.84;102729.09;5062769;28;20025;-63
2022/12/17 19:31:18;;;;;;;31.98;17.85;;;;;;;17.41;37.20;102721.88;5044632;28;20104;-63
2022/12/17 19:33:44;;;;;;;31.27;16.83;;;;;;;17.41;37.13;102727.25;5062131;28;20075;-63
2022/12/17 19:36:12;;;;;;;30.45;16.70;;;;;;;17.40;37.23;102722.88;5046332;28;20033;-63
2022/12/17 19:38:37;;;;;;;27.63;17.30;;;;;;;17.41;37.13;102731.78;5046838;28;20029;-63
2022/12/17 19:41:13;;;;;;;31.70;17.23;;;;;;;17.33;37.31;102715.38;5046845;28;20032;-63
2022/12/17 19:43:39;;;;;;;27.08;15.63;;;;;;;17.40;37.15;102733.63;5034579;28;20020;-62
2022/12/17 19:46:06;;;;;;;29.15;15.45;;;;;;;17.39;37.10;102733.75;5065012;28;20027;-62
2022/12/17 19:48:33;;;;;;;23.35;15.18;;;;;;;17.40;37.16;102732.78;5066168;28;20040;-63
2022/12/17 19:50:59;;;;;;;27.65;15.45;;;;;;;17.39;37.24;102728.38;5066642;28;20021;-64
2022/12/17 19:53:26;;;;;;;25.98;14.70;;;;;;;17.39;37.15;102734.59;5065109;28;20029;-63
2022/12/17 19:55:56;;;;;;;25.63;13.88;;;;;;;17.39;37.09;102736.44;5066507;28;20059;-63
2022/12/17 19:58:22;;;;;;;31.33;16.35;;;;;;;17.39;37.09;102739.13;5066085;28;20032;-63
2022/12/17 20:00:47;;;;;;;25.45;14.85;;;;;;;17.37;37.24;102735.69;5050775;28;20034;-62
2022/12/17 20:03:13;;;;;;;21.90;13.60;;;;;;;17.39;37.46;102749.88;5046282;28;20409;-63
2022/12/17 20:05:41;;;;;;;21.77;13.68;;;;;;;17.19;37.23;102714.56;5046256;28;20033;-63
2022/12/17 20:08:07;;;;;;;23.95;13.18;;;;;;;17.37;37.09;102744.59;5046382;28;20036;-63
2022/12/17 20:10:32;;;;;;;25.88;13.50;;;;;;;17.38;37.28;102751.72;5045856;28;20386;-63
2022/12/17 20:12:57;;;;;;;24.00;13.90;;;;;;;17.37;37.41;102749.97;5046067;28;20036;-63
2022/12/17 20:15:23;;;;;;;22.50;13.32;;;;;;;17.37;37.22;102749.97;5029304;28;20030;-63
2022/12/17 20:17:48;;;;;;;22.13;13.73;;;;;;;17.38;37.23;102754.41;5026454;28;20026;-63
2022/12/17 20:20:13;;;;;;;21.55;13.05;;;;;;;17.37;37.02;102749.97;5026278;28;20029;-63
2022/12/17 20:22:39;;;;;;;20.33;12.55;;;;;;;17.38;37.19;102748.19;5026053;28;20026;-63
2022/12/17 20:25:08;;;;;;;20.42;12.77;;;;;;;17.37;37.19;102739.22;5025697;28;20099;-62
2022/12/17 20:27:33;;;;;;;;;;;;;;;17.37;37.11;102744.59;5026436;28;20022;-63
2022/12/17 20:29:58;;;;;;;16.95;11.95;;;;;;;17.37;37.00;102741.91;5036764;28;19920;-63
2022/12/17 20:32:23;;;;;;;19.08;11.57;;;;;;;17.36;37.32;102750.09;5045706;28;20081;-63
2022/12/17 20:34:49;;;;;;;21.80;12.80;;;;;;;17.37;37.17;102749.97;5045362;28;20033;-62
2022/12/17 20:37:14;;;;;;;21.58;12.30;;;;;;;17.37;37.39;102751.81;5045811;28;20179;-63
2022/12/17 20:39:39;;;;;;;21.20;12.93;;;;;;;17.34;37.18;102750.22;5045570;28;20037;-63
2022/12/17 20:42:04;;;;;;;22.08;12.90;;;;;;;17.33;37.32;102755.69;5045397;28;20033;-63
2022/12/17 20:44:30;;;;;;;17.55;11.13;;;;;;;17.36;37.31;102767.09;5044831;28;20092;-63
2022/12/17 20:46:55;;;;;;;16.42;10.63;;;;;;;17.37;37.45;102765.25;5044975;28;20716;-63
2022/12/17 20:49:20;;;;;;;20.25;11.45;;;;;;;17.38;37.25;102769.69;5045204;28;20025;-63
2022/12/17 20:51:46;;;;;;;15.40;11.07;;;;;;;17.37;37.15;102768.81;5045475;28;20040;-63
2022/12/17 20:54:11;;;;;;;21.70;11.98;;;;;;;17.37;37.11;102771.50;5045294;28;20061;-62
2022/12/17 20:56:37;;;;;;;20.77;11.70;;;;;;;17.37;37.09;102773.31;5045716;28;20033;-63
2022/12/17 20:59:05;;;;;;;17.52;11.27;;;;;;;17.33;37.18;102769.13;5044293;28;20064;-63
2022/12/17 21:01:32;;;;;;;18.13;11.77;;;;;;;17.27;37.07;102757.03;5044165;28;20032;-63
2022/12/17 21:03:58;;;;;;;19.08;11.48;;;;;;;17.36;37.24;102775.16;5045289;28;20467;-63
2022/12/17 21:06:37;;;;;;;18.48;11.13;;;;;;;17.35;37.12;102762.69;5045171;28;20056;-63
2022/12/17 21:09:03;;;;;;;19.27;11.85;;;;;;;17.31;37.34;102749.59;5045049;28;20025;-63
2022/12/17 21:11:30;;;;;;;17.08;11.40;;;;;;;17.36;37.38;102764.41;5045274;28;20520;-63
2022/12/17 21:13:56;;;;;;;16.75;10.20;;;;;;;17.36;37.42;102760.84;5044451;28;20064;-64
2022/12/17 21:16:26;;;;;;;18.55;11.02;;;;;;;17.34;37.31;102754.75;5044812;28;20030;-63
2022/12/17 21:18:53;;;;;;;16.92;11.10;;;;;;;17.34;37.32;102760.97;5045107;28;20033;-63
2022/12/17 21:21:20;;;;;;;15.75;9.82;;;;;;;17.34;37.33;102760.97;5045276;28;20026;-62
2022/12/17 21:23:46;;;;;;;16.45;10.93;;;;;;;17.34;37.39;102765.50;5044306;28;20025;-63
2022/12/17 21:26:14;;;;;;;19.25;11.57;;;;;;;17.34;37.11;102769.06;5044593;28;20179;-64
2022/12/17 21:28:41;;;;;;;17.60;11.13;;;;;;;17.35;37.05;102775.28;5043642;28;20505;-64
2022/12/17 21:31:18;;;;;;;17.77;11.10;;;;;;;17.33;36.97;102775.41;5045197;28;20025;-65
2022/12/17 21:33:44;;;;;;;16.85;9.35;;;;;;;17.33;36.92;102783.47;5044522;28;20715;-64
2022/12/17 21:36:10;;;;;;;14.32;9.55;;;;;;;17.33;36.75;102787.97;5044839;28;20025;-64
2022/12/17 21:38:35;;;;;;;16.70;10.77;;;;;;;17.32;36.89;102780.88;5044869;28;20037;-63
2022/12/17 21:41:06;;;;;;;15.55;10.32;;;;;;;17.31;37.08;102795.28;5044834;28;20028;-63
2022/12/17 21:43:32;;;;;;;14.45;9.82;;;;;;;17.31;36.87;102792.59;5043983;28;20033;-63
2022/12/17 21:45:57;;;;;;;17.15;10.02;;;;;;;17.31;37.25;102782.72;5044163;28;20410;-63
2022/12/17 21:48:23;;;;;;;18.38;10.60;;;;;;;17.30;36.92;102785.53;5044400;28;20052;-63
2022/12/17 21:50:48;;;;;;;14.75;9.80;;;;;;;17.23;36.98;102777.03;5037611;28;20033;-63
2022/12/17 21:53:14;;;;;;;12.88;9.30;;;;;;;17.30;36.79;102785.53;5039271;28;20033;-63
2022/12/17 21:55:39;;;;;;;14.75;9.45;;;;;;;17.28;36.83;102785.59;5024757;28;20017;-63
2022/12/17 21:58:05;;;;;;;14.40;9.55;;;;;;;17.26;37.02;102781.34;5024161;28;20021;-63
2022/12/17 22:00:30;;;;;;;13.15;9.18;;;;;;;17.21;36.89;102777.16;5040857;28;20747;-62
2022/12/17 22:02:56;;;;;;;15.90;10.10;;;;;;;17.28;37.04;102795.50;5044274;28;20035;-64
2022/12/17 22:05:21;;;;;;;14.75;9.93;;;;;;;17.29;37.02;102805.28;5044301;28;20378;-63
2022/12/17 22:07:47;;;;;;;14.73;9.48;;;;;;;17.23;37.10;102793.16;5044485;28;20026;-63
2022/12/17 22:10:12;;;;;;;18.33;10.38;;;;;;;17.26;36.94;102798.31;5044513;28;20661;-63
2022/12/17 22:15:22;;;;;;;14.25;9.70;;;;;;;17.26;37.01;102808.22;5043432;28;20044;-63
2022/12/17 22:17:47;;;;;;;13.73;9.48;;;;;;;17.24;36.97;102809.16;5043078;28;20029;-63
2022/12/17 22:20:15;;;;;;;13.15;9.15;;;;;;;17.24;36.92;102811.00;5044200;28;20049;-63
2022/12/17 22:22:41;;;;;;;13.07;9.20;;;;;;;17.18;36.84;102806.09;5044339;28;20378;-63
2022/12/17 22:25:07;;;;;;;14.57;9.50;;;;;;;17.23;36.82;102815.53;5059510;28;20025;-63
2022/12/17 22:27:33;;;;;;;13.38;9.55;;;;;;;17.23;37.01;102815.53;5044160;28;20053;-63
2022/12/17 22:33:01;;;;;;;15.05;9.75;;;;;;;17.23;36.89;102804.78;5024290;28;20052;-63
2022/12/17 22:35:32;;;;;;;12.95;8.75;;;;;;;17.22;36.97;102811.13;5024204;28;20037;-63
2022/12/17 22:37:57;;;;;;;13.10;9.60;;;;;;;17.22;36.91;102813.81;5024397;28;20108;-63
2022/12/17 22:40:22;;;;;;;11.13;8.73;;;;;;;17.22;36.78;102804.88;5024507;28;20390;-63
2022/12/17 22:45:32;;;;;;;12.20;8.77;;;;;;;17.20;36.79;102798.75;5023719;28;20095;-63
2022/12/17 22:47:57;;;;;;;14.02;9.25;;;;;;;17.18;36.94;102798.03;5024079;28;20709;-63
2022/12/17 22:50:23;;;;;;;14.32;9.52;;;;;;;17.19;36.85;102814.03;5024470;28;20113;-63
2022/12/17 22:52:48;;;;;;;12.65;8.65;;;;;;;17.19;36.82;102818.53;5024158;28;20029;-63
2022/12/17 22:55:14;;;;;;;12.07;9.18;;;;;;;17.19;36.93;102821.22;5024034;28;20026;-63
2022/12/17 22:57:39;;;;;;;12.68;8.88;;;;;;;17.19;36.80;102819.41;5023672;28;20491;-63
2022/12/17 23:00:10;;;;;;;13.98;9.45;;;;;;;17.19;36.77;102815.84;5042462;28;20049;-63
2022/12/17 23:02:35;;;;;;;14.27;9.27;;;;;;;17.18;36.84;102814.16;5044022;28;20025;-64
2022/12/17 23:05:01;;;;;;;12.35;8.98;;;;;;;17.12;36.93;102802.03;5058799;28;20028;-64
2022/12/17 23:07:26;;;;;;;12.35;9.25;;;;;;;17.17;36.76;102801.69;5047403;28;20060;-63
2022/12/17 23:09:51;;;;;;;12.10;9.13;;;;;;;17.15;36.83;102796.41;5047635;28;20462;-63
2022/12/17 23:15:00;;;;;;;13.18;9.13;;;;;;;17.16;36.97;102808.00;5047050;28;20028;-63
2022/12/17 23:17:26;;;;;;;11.82;8.68;;;;;;;17.15;36.87;102808.97;5047328;28;20029;-63
2022/12/17 23:19:51;;;;;;;12.70;9.30;;;;;;;17.14;36.76;102809.97;5047563;28;20081;-63
2022/12/17 23:22:16;;;;;;;13.57;9.65;;;;;;;17.12;36.90;102809.19;5047966;28;20034;-64
2022/12/17 23:24:41;;;;;;;12.55;9.30;;;;;;;17.14;36.93;102813.50;5047203;28;20108;-64
2022/12/17 23:27:07;;;;;;;12.40;9.90;;;;;;;17.11;36.82;102808.34;5047669;28;20025;-65
2022/12/17 23:29:32;;;;;;;12.88;9.73;;;;;;;17.14;36.61;102820.72;5046794;28;20022;-65
2022/12/17 23:31:57;;;;;;;13.60;9.63;;;;;;;17.13;36.83;102819.84;5047371;28;20040;-65
2022/12/17 23:34:23;;;;;;;13.43;9.85;;;;;;;17.10;36.85;102822.75;5047167;28;20076;-65
2022/12/17 23:36:48;;;;;;;12.93;9.23;;;;;;;17.11;36.71;102824.47;5047573;28;20088;-65
2022/12/17 23:39:14;;;;;;;12.60;9.57;;;;;;;17.11;36.96;102823.59;5047256;28;20068;-65
2022/12/17 23:41:39;;;;;;;11.77;9.23;;;;;;;17.12;36.81;102831.59;5047711;28;20033;-65
2022/12/17 23:44:04;;;;;;;13.00;9.48;;;;;;;17.06;36.84;102821.25;5046524;28;20025;-65
2022/12/17 23:46:30;;;;;;;13.43;10.02;;;;;;;17.10;36.84;102829.97;5046752;28;20033;-65
2022/12/17 23:48:56;;;;;;;13.57;9.93;;;;;;;17.09;36.88;102822.88;5047027;28;20053;-65
2022/12/17 23:51:22;;;;;;;11.93;9.35;;;;;;;17.10;36.75;102824.59;5035735;28;20037;-65
2022/12/17 23:53:47;;;;;;;12.65;9.32;;;;;;;17.09;37.00;102825.56;5026959;28;20029;-65
2022/12/17 23:56:19;;;;;;;14.20;9.55;;;;;;;17.08;36.83;102826.53;5027382;28;20478;-65
2022/12/17 23:58:45;;;;;;;12.43;9.80;;;;;;;17.07;36.86;102822.13;5033295;28;20478;-65
